createdAt,value
2022-11-30T00:02:03.039Z,29.73
2022-11-30T00:04:31.626Z,26.33
2022-11-30T00:07:00.049Z,31.33
2022-11-30T00:09:27.905Z,30.27
2022-11-30T00:11:57.524Z,33.80
2022-11-30T00:14:25.982Z,31.83
2022-11-30T00:16:54.322Z,38.00
2022-11-30T00:19:22.575Z,29.35
2022-11-30T00:21:50.648Z,29.13
2022-11-30T00:24:18.574Z,32.22
2022-11-30T00:26:47.064Z,36.25
2022-11-30T00:29:16.760Z,32.15
2022-11-30T00:31:44.554Z,33.83
2022-11-30T00:34:12.901Z,35.10
2022-11-30T00:36:40.821Z,36.22
2022-11-30T00:39:09.117Z,37.03
2022-11-30T00:41:37.033Z,38.75
2022-11-30T00:44:05.529Z,38.70
2022-11-30T00:46:34.886Z,36.70
2022-11-30T00:49:03.293Z,33.03
2022-11-30T00:51:31.606Z,37.22
2022-11-30T00:53:59.428Z,37.65
2022-11-30T00:56:27.821Z,30.02
2022-11-30T00:58:56.194Z,35.75
2022-11-30T01:01:24.166Z,32.75
2022-11-30T01:03:53.645Z,33.50
2022-11-30T01:06:21.945Z,32.55
2022-11-30T01:08:49.911Z,35.65
2022-11-30T01:11:26.054Z,35.33
2022-11-30T01:13:55.180Z,35.67
2022-11-30T01:16:27.209Z,36.50
2022-11-30T01:18:58.043Z,36.75
2022-11-30T01:21:27.924Z,38.05
2022-11-30T01:23:56.084Z,34.15
2022-11-30T01:26:25.222Z,40.78
2022-11-30T01:28:54.804Z,37.03
2022-11-30T01:31:25.229Z,37.13
2022-11-30T01:33:54.767Z,42.35
2022-11-30T01:36:27.253Z,37.95
2022-11-30T01:38:57.780Z,48.70
2022-11-30T01:41:28.161Z,45.22
2022-11-30T01:43:58.700Z,42.05
2022-11-30T01:46:35.937Z,39.03
2022-11-30T01:49:16.216Z,34.25
2022-11-30T01:51:48.116Z,43.17
2022-11-30T01:54:21.550Z,44.30
2022-11-30T01:56:54.109Z,44.78
2022-11-30T01:59:24.306Z,41.25
2022-11-30T02:01:53.260Z,38.55
2022-11-30T02:04:26.064Z,35.95
2022-11-30T02:06:58.250Z,34.78
2022-11-30T02:09:29.040Z,38.65
2022-11-30T02:11:58.490Z,47.63
2022-11-30T02:14:35.098Z,40.45
2022-11-30T02:17:12.839Z,38.67
2022-11-30T02:20:17.768Z,34.83
2022-11-30T02:23:04.852Z,40.05
2022-11-30T02:25:41.829Z,44.83
2022-11-30T02:28:26.692Z,74.70
2022-11-30T02:30:59.587Z,70.90
2022-11-30T02:33:31.581Z,45.83
2022-11-30T02:36:02.401Z,47.65
2022-11-30T02:38:31.410Z,37.55
2022-11-30T02:40:59.265Z,39.28
2022-11-30T02:43:31.657Z,43.63
2022-11-30T02:46:07.599Z,45.42
2022-11-30T02:48:45.078Z,65.60
2022-11-30T02:51:19.069Z,44.75
2022-11-30T02:53:48.656Z,39.55
2022-11-30T02:56:17.365Z,51.67
2022-11-30T02:58:45.213Z,63.75
2022-11-30T03:01:15.189Z,44.65
2022-11-30T03:03:43.588Z,50.33
2022-11-30T03:06:11.502Z,67.03
2022-11-30T03:08:39.890Z,93.07
2022-11-30T03:11:07.991Z,116.10
2022-11-30T03:13:36.129Z,51.22
2022-11-30T03:16:08.662Z,37.03
2022-11-30T03:18:39.234Z,42.72
2022-11-30T03:21:08.856Z,56.75
2022-11-30T03:23:37.087Z,43.20
2022-11-30T03:26:06.518Z,47.05
2022-11-30T03:28:34.790Z,48.08
2022-11-30T03:31:02.854Z,43.25
2022-11-30T03:33:31.176Z,56.85
2022-11-30T03:36:06.113Z,62.13
2022-11-30T03:38:35.261Z,57.15
2022-11-30T03:41:04.692Z,54.92
2022-11-30T03:43:32.736Z,50.10
2022-11-30T03:46:01.572Z,38.92
2022-11-30T03:48:29.996Z,67.00
2022-11-30T03:50:58.195Z,53.63
2022-11-30T03:53:28.350Z,62.88
2022-11-30T03:55:58.691Z,46.10
2022-11-30T03:58:27.051Z,73.18
2022-11-30T04:01:01.681Z,56.50
2022-11-30T04:03:30.936Z,66.75
2022-11-30T04:05:59.505Z,46.30
2022-11-30T04:08:30.848Z,74.22
2022-11-30T04:11:00.836Z,33.05
2022-11-30T04:13:30.078Z,64.43
2022-11-30T04:15:58.592Z,42.88
2022-11-30T04:18:29.084Z,93.82
2022-11-30T04:20:59.013Z,47.28
2022-11-30T04:23:32.501Z,137.63
2022-11-30T04:26:01.031Z,45.97
2022-11-30T04:28:29.221Z,39.50
2022-11-30T04:30:57.267Z,58.65
2022-11-30T04:33:25.726Z,101.63
2022-11-30T04:35:57.393Z,100.18
2022-11-30T04:38:26.357Z,86.07
2022-11-30T04:40:56.553Z,93.78
2022-11-30T04:43:24.876Z,95.97
2022-11-30T04:45:53.461Z,97.82
2022-11-30T04:48:22.065Z,120.18
2022-11-30T04:50:50.960Z,108.88
2022-11-30T04:53:19.300Z,104.05
2022-11-30T04:55:47.221Z,115.90
2022-11-30T04:58:16.468Z,78.70
2022-11-30T05:00:44.703Z,60.25
2022-11-30T05:03:12.969Z,62.38
2022-11-30T05:05:40.948Z,76.20
2022-11-30T05:08:09.298Z,61.25
2022-11-30T05:10:37.538Z,60.72
2022-11-30T05:13:05.477Z,65.18
2022-11-30T05:15:35.395Z,73.45
2022-11-30T05:18:03.987Z,57.22
2022-11-30T05:20:32.097Z,68.38
2022-11-30T05:23:00.302Z,50.30
2022-11-30T05:25:28.417Z,61.28
2022-11-30T05:27:56.311Z,61.70
2022-11-30T05:30:24.622Z,85.40
2022-11-30T05:32:55.721Z,59.33
2022-11-30T05:35:23.690Z,60.30
2022-11-30T05:37:52.128Z,78.15
2022-11-30T05:40:20.418Z,57.17
2022-11-30T05:42:48.267Z,50.33
2022-11-30T05:45:16.753Z,49.60
2022-11-30T05:47:45.011Z,52.08
2022-11-30T05:50:14.408Z,53.72
2022-11-30T05:52:42.776Z,74.85
2022-11-30T05:55:11.232Z,59.03
2022-11-30T05:57:40.222Z,49.45
2022-11-30T06:00:10.905Z,68.43
2022-11-30T06:02:39.352Z,55.33
2022-11-30T06:05:08.386Z,76.13
2022-11-30T06:07:38.243Z,54.90
2022-11-30T06:10:07.225Z,68.78
2022-11-30T06:12:35.371Z,55.42
2022-11-30T06:15:03.933Z,57.08
2022-11-30T06:17:32.290Z,55.42
2022-11-30T06:20:00.202Z,52.88
2022-11-30T06:22:28.433Z,59.60
2022-11-30T06:24:58.305Z,60.45
2022-11-30T06:27:26.240Z,57.42
2022-11-30T06:29:54.638Z,63.47
2022-11-30T06:32:23.075Z,57.08
2022-11-30T06:34:51.035Z,61.30
2022-11-30T06:37:19.364Z,55.00
2022-11-30T06:42:37.597Z,53.47
2022-11-30T06:45:07.100Z,62.10
2022-11-30T06:47:35.224Z,54.95
2022-11-30T06:50:03.616Z,74.80
2022-11-30T06:52:33.203Z,54.90
2022-11-30T06:55:01.062Z,57.75
2022-11-30T06:57:30.043Z,54.35
2022-11-30T06:59:59.962Z,68.55
2022-11-30T07:02:27.715Z,66.95
2022-11-30T07:04:58.234Z,60.35
2022-11-30T07:07:26.371Z,56.97
2022-11-30T07:09:56.802Z,60.38
2022-11-30T07:12:25.037Z,55.53
2022-11-30T07:14:56.720Z,54.33
2022-11-30T07:17:26.508Z,59.33
2022-11-30T07:19:54.260Z,79.72
2022-11-30T07:22:22.086Z,54.10
2022-11-30T07:25:07.383Z,58.58
2022-11-30T07:27:35.683Z,66.60
2022-11-30T07:30:03.336Z,55.92
2022-11-30T07:32:32.398Z,59.97
2022-11-30T07:35:00.269Z,60.67
2022-11-30T07:37:27.982Z,65.05
2022-11-30T07:39:56.278Z,72.20
2022-11-30T07:42:24.005Z,63.92
2022-11-30T07:44:58.193Z,68.47
2022-11-30T07:47:26.663Z,75.05
2022-11-30T07:49:56.033Z,65.88
2022-11-30T07:52:25.417Z,65.15
2022-11-30T07:54:53.071Z,62.17
2022-11-30T07:57:20.952Z,61.47
2022-11-30T07:59:49.246Z,71.55
2022-11-30T08:02:17.480Z,58.10
2022-11-30T08:04:45.803Z,66.68
2022-11-30T08:07:15.545Z,61.20
2022-11-30T08:09:45.019Z,60.45
2022-11-30T08:12:12.963Z,67.15
2022-11-30T08:15:11.154Z,63.72
2022-11-30T08:17:28.981Z,73.47
2022-11-30T08:19:56.796Z,69.32
2022-11-30T08:22:26.130Z,62.00
2022-11-30T08:24:54.334Z,77.05
2022-11-30T08:27:22.261Z,64.45
2022-11-30T08:29:50.431Z,66.85
2022-11-30T08:32:18.171Z,76.07
2022-11-30T08:34:46.653Z,64.25
2022-11-30T08:37:15.017Z,66.05
2022-11-30T08:39:44.207Z,64.85
2022-11-30T08:42:12.271Z,62.38
2022-11-30T08:44:39.909Z,61.17
2022-11-30T08:47:08.102Z,53.33
2022-11-30T08:49:35.853Z,58.95
2022-11-30T08:52:19.599Z,54.20
2022-11-30T08:54:49.491Z,58.00
2022-11-30T08:57:19.164Z,54.33
2022-11-30T08:59:47.278Z,59.97
2022-11-30T09:02:18.846Z,56.67
2022-11-30T09:04:51.068Z,57.85
2022-11-30T09:07:19.952Z,62.70
2022-11-30T09:09:49.758Z,60.63
2022-11-30T09:12:17.508Z,64.00
2022-11-30T09:14:50.803Z,66.38
2022-11-30T09:17:22.044Z,67.80
2022-11-30T09:19:50.529Z,71.05
2022-11-30T09:22:18.327Z,67.88
2022-11-30T09:24:46.374Z,61.88
2022-11-30T09:27:16.030Z,55.08
2022-11-30T09:29:43.864Z,62.63
2022-11-30T09:32:11.881Z,62.67
2022-11-30T09:34:39.644Z,61.90
2022-11-30T09:37:07.503Z,58.25
2022-11-30T09:39:35.276Z,59.47
2022-11-30T09:42:33.493Z,50.80
2022-11-30T09:45:07.760Z,52.30
2022-11-30T09:48:00.073Z,50.85
2022-11-30T09:50:32.994Z,50.00
2022-11-30T09:53:06.734Z,54.40
2022-11-30T09:55:40.383Z,54.58
2022-11-30T09:58:24.483Z,52.67
2022-11-30T10:00:52.370Z,54.80
2022-11-30T10:03:23.629Z,52.42
2022-11-30T10:05:58.029Z,51.10
2022-11-30T10:08:50.836Z,61.33
2022-11-30T10:11:33.808Z,52.03
2022-11-30T10:14:18.112Z,64.72
2022-11-30T10:16:58.376Z,47.72
2022-11-30T10:19:43.123Z,53.95
2022-11-30T10:22:22.199Z,48.08
2022-11-30T10:25:10.162Z,49.55
2022-11-30T10:27:50.122Z,48.47
2022-11-30T10:30:22.603Z,52.25
2022-11-30T10:32:54.431Z,53.45
2022-11-30T10:35:31.841Z,59.53
2022-11-30T10:38:04.555Z,51.40
2022-11-30T10:40:39.221Z,53.20
2022-11-30T10:43:18.804Z,53.30
2022-11-30T10:45:50.342Z,52.65
2022-11-30T10:48:25.801Z,52.42
2022-11-30T10:50:54.673Z,48.05
2022-11-30T10:53:23.325Z,46.08
2022-11-30T10:55:59.890Z,75.53
2022-11-30T10:58:32.920Z,54.35
2022-11-30T11:01:06.849Z,55.22
2022-11-30T11:03:35.600Z,50.25
2022-11-30T11:06:15.862Z,57.88
2022-11-30T11:08:46.827Z,49.42
2022-11-30T11:11:36.880Z,50.70
2022-11-30T11:14:16.088Z,50.58
2022-11-30T11:16:53.836Z,49.17
2022-11-30T11:19:34.847Z,55.58
2022-11-30T11:22:05.808Z,48.70
2022-11-30T11:24:35.762Z,58.03
2022-11-30T11:27:03.990Z,54.53
2022-11-30T11:29:34.958Z,52.80
2022-11-30T11:32:25.913Z,49.10
2022-11-30T11:34:54.129Z,53.05
2022-11-30T11:37:26.705Z,50.95
2022-11-30T11:40:04.040Z,53.42
2022-11-30T11:42:35.551Z,55.35
2022-11-30T11:45:08.101Z,52.25
2022-11-30T11:47:41.423Z,56.05
2022-11-30T11:51:04.836Z,55.88
2022-11-30T11:53:25.553Z,59.17
2022-11-30T11:55:58.818Z,55.65
2022-11-30T11:58:36.460Z,53.90
2022-11-30T12:01:38.745Z,56.67
2022-11-30T12:04:14.283Z,52.13
2022-11-30T12:06:46.161Z,56.05
2022-11-30T12:09:19.170Z,52.53
2022-11-30T12:11:50.301Z,53.80
2022-11-30T12:14:19.933Z,55.67
2022-11-30T12:17:05.783Z,52.00
2022-11-30T12:22:20.785Z,56.83
2022-11-30T12:25:00.126Z,61.92
2022-11-30T12:27:46.873Z,56.42
2022-11-30T12:30:23.580Z,59.22
2022-11-30T12:33:12.009Z,54.35
2022-11-30T12:35:49.824Z,52.78
2022-11-30T12:38:31.681Z,59.05
2022-11-30T12:41:08.568Z,59.20
2022-11-30T12:43:46.855Z,57.58
2022-11-30T12:46:24.796Z,57.17
2022-11-30T12:49:11.018Z,60.13
2022-11-30T12:51:47.953Z,58.35
2022-11-30T12:54:22.574Z,60.22
2022-11-30T12:56:56.489Z,64.68
2022-11-30T12:59:32.437Z,60.38
2022-11-30T13:02:17.299Z,56.22
2022-11-30T13:04:51.866Z,56.70
2022-11-30T13:07:29.087Z,59.55
2022-11-30T13:10:01.584Z,53.60
2022-11-30T13:12:36.286Z,54.95
2022-11-30T13:15:14.008Z,55.42
2022-11-30T13:17:44.331Z,65.38
2022-11-30T13:20:21.530Z,57.47
2022-11-30T13:22:56.948Z,61.22
2022-11-30T13:26:06.312Z,63.60
2022-11-30T13:28:32.837Z,63.92
2022-11-30T13:31:06.581Z,61.70
2022-11-30T13:33:48.705Z,70.10
2022-11-30T13:36:28.824Z,59.92
2022-11-30T13:39:19.987Z,62.72
2022-11-30T13:41:50.260Z,80.93
2022-11-30T13:44:27.132Z,56.00
2022-11-30T13:46:55.082Z,48.90
2022-11-30T13:49:24.730Z,47.97
2022-11-30T13:52:19.996Z,48.50
2022-11-30T13:54:45.146Z,43.38
2022-11-30T13:57:57.982Z,46.90
2022-11-30T14:00:49.751Z,41.08
2022-11-30T14:03:25.631Z,45.05
2022-11-30T14:05:54.872Z,44.00
2022-11-30T14:08:40.246Z,42.42
2022-11-30T14:11:42.037Z,38.00
2022-11-30T14:14:45.354Z,48.50
2022-11-30T14:17:20.632Z,49.30
2022-11-30T14:19:52.958Z,40.50
2022-11-30T14:22:21.221Z,41.50
2022-11-30T14:24:50.736Z,45.17
2022-11-30T14:27:22.143Z,47.95
2022-11-30T14:29:53.632Z,46.70
2022-11-30T14:32:36.238Z,46.65
2022-11-30T14:35:13.082Z,47.05
2022-11-30T14:38:01.515Z,45.92
2022-11-30T14:40:31.456Z,48.35
2022-11-30T14:43:01.617Z,52.88
2022-11-30T14:45:33.923Z,53.83
2022-11-30T14:48:13.943Z,51.90
2022-11-30T14:50:44.711Z,48.00
2022-11-30T14:53:27.329Z,50.30
2022-11-30T14:56:01.073Z,47.90
2022-11-30T14:58:37.477Z,51.35
2022-11-30T15:01:18.565Z,55.03
2022-11-30T15:03:50.870Z,55.28
2022-11-30T15:06:21.857Z,51.38
2022-11-30T15:08:53.132Z,46.25
2022-11-30T15:11:21.612Z,57.33
2022-11-30T15:13:52.552Z,58.92
2022-11-30T15:16:22.649Z,55.72
2022-11-30T15:18:53.472Z,53.95
2022-11-30T15:21:24.068Z,53.53
2022-11-30T15:23:53.279Z,58.03
2022-11-30T15:29:00.386Z,60.88
2022-11-30T15:31:33.928Z,58.78
2022-11-30T15:34:03.737Z,57.25
2022-11-30T15:36:36.349Z,56.90
2022-11-30T15:39:07.988Z,59.58
2022-11-30T15:41:37.628Z,59.20
2022-11-30T15:44:06.000Z,63.65
2022-11-30T15:46:39.797Z,78.93
2022-11-30T15:53:04.419Z,123.20
2022-11-30T15:55:52.743Z,90.00
2022-11-30T15:58:31.265Z,114.13
2022-11-30T16:01:10.655Z,74.47
2022-11-30T16:04:07.147Z,60.38
2022-11-30T16:06:52.897Z,61.67
2022-11-30T16:09:27.073Z,55.55
2022-11-30T16:11:58.760Z,60.90
2022-11-30T16:14:31.138Z,59.15
2022-11-30T16:17:04.161Z,58.35
2022-11-30T16:19:37.739Z,68.70
2022-11-30T16:22:10.761Z,70.15
2022-11-30T16:24:43.074Z,67.53
2022-11-30T16:27:37.545Z,64.40
2022-11-30T16:30:07.064Z,64.03
2022-11-30T16:32:35.174Z,69.28
2022-11-30T16:35:03.805Z,68.25
2022-11-30T16:37:34.647Z,75.45
2022-11-30T16:40:11.511Z,66.35
2022-11-30T16:42:39.381Z,62.90
2022-11-30T16:45:14.627Z,68.47
2022-11-30T16:47:43.952Z,68.10
2022-11-30T16:50:12.929Z,70.68
2022-11-30T16:52:41.689Z,65.53
2022-11-30T16:55:19.275Z,62.13
2022-11-30T16:57:48.520Z,70.40
2022-11-30T17:00:21.021Z,76.30
2022-11-30T17:02:56.931Z,88.70
2022-11-30T17:05:25.343Z,69.97
2022-11-30T17:07:53.251Z,78.03
2022-11-30T17:10:23.399Z,74.00
2022-11-30T17:12:51.768Z,76.68
2022-11-30T17:15:21.510Z,76.07
2022-11-30T17:17:49.936Z,78.88
2022-11-30T17:20:19.121Z,86.95
2022-11-30T17:22:49.347Z,79.63
2022-11-30T17:25:19.634Z,77.50
2022-11-30T17:27:50.813Z,87.72
2022-11-30T17:30:20.734Z,87.88
2022-11-30T17:32:48.882Z,89.25
2022-11-30T17:35:17.799Z,85.70
2022-11-30T17:37:46.989Z,84.90
2022-11-30T17:40:17.888Z,85.13
2022-11-30T17:42:47.179Z,93.25
2022-11-30T17:45:19.020Z,88.80
2022-11-30T17:47:47.093Z,86.13
2022-11-30T17:50:16.338Z,89.60
2022-11-30T17:52:44.394Z,98.97
2022-11-30T17:55:13.296Z,102.85
2022-11-30T17:57:41.988Z,102.32
2022-11-30T18:00:10.936Z,112.28
2022-11-30T18:02:40.735Z,96.53
2022-11-30T18:09:00.902Z,92.68
2022-11-30T18:11:32.140Z,101.40
2022-11-30T18:14:03.600Z,101.32
2022-11-30T18:16:35.507Z,96.65
2022-11-30T18:19:11.965Z,102.78
2022-11-30T18:21:41.931Z,102.68
2022-11-30T18:24:11.136Z,98.82
2022-11-30T18:26:40.589Z,97.88
2022-11-30T18:29:10.141Z,99.68
2022-11-30T18:31:38.909Z,103.80
2022-11-30T18:34:09.324Z,94.15
2022-11-30T18:36:37.699Z,99.13
2022-11-30T18:39:06.300Z,94.05
2022-11-30T18:41:35.065Z,96.90
2022-11-30T18:44:03.786Z,97.18
2022-11-30T18:46:32.887Z,96.55
2022-11-30T18:49:01.981Z,81.03
2022-11-30T18:51:32.585Z,87.68
2022-11-30T18:54:02.610Z,90.43
2022-11-30T18:56:32.861Z,98.53
2022-11-30T18:59:03.584Z,116.78
2022-11-30T19:01:32.928Z,113.10
2022-11-30T19:04:03.065Z,101.97
2022-11-30T19:06:35.317Z,105.10
2022-11-30T19:09:07.416Z,96.82
2022-11-30T19:11:35.950Z,90.85
2022-11-30T19:14:04.895Z,100.93
2022-11-30T19:16:37.389Z,89.57
2022-11-30T19:19:07.935Z,95.38
2022-11-30T19:21:37.364Z,89.10
2022-11-30T19:24:05.607Z,81.22
2022-11-30T19:26:33.512Z,88.03
2022-11-30T19:29:01.599Z,83.78
2022-11-30T19:31:29.655Z,75.95
2022-11-30T19:33:58.360Z,85.45
2022-11-30T19:36:30.033Z,88.95
2022-11-30T19:39:01.444Z,86.40
2022-11-30T19:41:30.082Z,87.47
2022-11-30T19:44:03.796Z,79.07
2022-11-30T19:46:34.655Z,84.43
2022-11-30T19:49:05.359Z,93.03
2022-11-30T19:51:33.465Z,84.07
2022-11-30T19:54:03.777Z,93.63
2022-11-30T19:56:34.734Z,88.00
2022-11-30T19:59:06.379Z,81.32
2022-11-30T20:01:35.442Z,81.05
2022-11-30T20:04:04.319Z,81.13
2022-11-30T20:06:34.068Z,75.05
2022-11-30T20:09:06.344Z,74.25
2022-11-30T20:11:35.428Z,78.85
2022-11-30T20:14:03.734Z,81.75
2022-11-30T20:16:32.082Z,86.63
2022-11-30T20:19:02.822Z,81.22
2022-11-30T20:21:33.099Z,75.65
2022-11-30T20:24:06.385Z,71.43
2022-11-30T20:26:36.239Z,71.47
2022-11-30T20:29:06.191Z,77.05
2022-11-30T20:31:37.466Z,72.78
2022-11-30T20:34:06.163Z,70.40
2022-11-30T20:36:34.336Z,68.38
2022-11-30T20:39:04.553Z,62.25
2022-11-30T20:41:32.641Z,60.55
2022-11-30T20:44:02.130Z,64.80
2022-11-30T20:46:32.307Z,63.72
2022-11-30T20:49:01.987Z,63.30
2022-11-30T20:51:33.269Z,61.63
2022-11-30T20:54:06.717Z,68.65
2022-11-30T20:56:37.512Z,70.30
2022-11-30T20:59:08.168Z,72.25
2022-11-30T21:01:36.840Z,60.25
2022-11-30T21:04:06.014Z,62.05
2022-11-30T21:06:36.839Z,56.65
2022-11-30T21:09:07.809Z,51.80
2022-11-30T21:11:35.725Z,47.75
2022-11-30T21:14:04.258Z,52.35
2022-11-30T21:16:32.371Z,52.58
2022-11-30T21:20:17.965Z,50.10
2022-11-30T21:29:42.820Z,53.57
2022-11-30T21:32:56.994Z,50.80
2022-11-30T21:35:27.746Z,43.70
2022-11-30T21:38:01.351Z,48.20
2022-11-30T21:40:35.961Z,43.83
2022-11-30T21:53:02.131Z,45.30
2022-11-30T21:58:53.232Z,44.78
2022-11-30T22:01:24.489Z,40.47
2022-11-30T22:07:56.352Z,46.53
2022-11-30T22:10:36.286Z,46.80
2022-11-30T22:16:13.505Z,43.28
2022-11-30T22:33:23.370Z,45.05
2022-11-30T22:36:11.089Z,46.58
